createdAt,value
2023-03-19T00:02:19.649Z,19.60
2023-03-19T00:04:49.128Z,19.70
2023-03-19T00:10:00.762Z,19.20
2023-03-19T00:12:29.278Z,19.90
2023-03-19T00:14:57.613Z,19.00
2023-03-19T00:17:25.886Z,19.00
2023-03-19T00:19:54.093Z,17.50
2023-03-19T00:22:22.427Z,19.00
2023-03-19T00:24:50.627Z,19.40
2023-03-19T00:27:18.916Z,16.90
2023-03-19T00:29:49.392Z,17.60
2023-03-19T00:32:18.635Z,19.40
2023-03-19T00:34:47.814Z,19.60
2023-03-19T00:37:18.360Z,17.00
2023-03-19T00:39:46.617Z,17.60
2023-03-19T00:42:16.904Z,19.50
2023-03-19T00:44:45.259Z,18.50
2023-03-19T00:47:13.603Z,18.70
2023-03-19T00:49:41.937Z,17.40
2023-03-19T00:52:10.606Z,13.80
2023-03-19T00:54:38.785Z,13.30
2023-03-19T00:57:07.213Z,14.40
2023-03-19T00:59:35.642Z,15.80
2023-03-19T01:02:04.788Z,18.90
2023-03-19T01:04:32.990Z,18.10
2023-03-19T01:07:07.612Z,17.10
2023-03-19T01:09:36.380Z,17.30
2023-03-19T01:12:05.046Z,18.30
2023-03-19T01:14:39.413Z,19.70
2023-03-19T01:17:08.513Z,16.80
2023-03-19T01:19:36.891Z,16.90
2023-03-19T01:22:05.336Z,15.10
2023-03-19T01:24:35.368Z,14.90
2023-03-19T01:27:03.964Z,16.40
2023-03-19T01:29:36.918Z,15.80
2023-03-19T01:32:31.460Z,15.40
2023-03-19T01:35:16.954Z,15.80
2023-03-19T01:37:45.564Z,16.70
2023-03-19T01:40:15.127Z,17.50
2023-03-19T01:43:18.570Z,15.50
2023-03-19T01:46:37.225Z,13.10
2023-03-19T01:49:31.956Z,12.60
2023-03-19T01:52:15.881Z,13.70
2023-03-19T01:55:13.604Z,14.40
2023-03-19T01:58:10.751Z,15.00
2023-03-19T02:00:58.746Z,19.20
2023-03-19T02:03:27.678Z,19.50
2023-03-19T02:06:13.700Z,16.90
2023-03-19T02:08:42.649Z,18.00
2023-03-19T02:11:11.284Z,17.30
2023-03-19T02:13:39.910Z,19.60
2023-03-19T02:16:08.873Z,16.80
2023-03-19T02:18:37.594Z,16.90
2023-03-19T02:21:14.779Z,17.50
2023-03-19T02:24:03.699Z,18.00
2023-03-19T02:26:47.459Z,16.90
2023-03-19T02:29:15.956Z,17.70
2023-03-19T02:31:46.399Z,18.50
2023-03-19T02:34:21.402Z,17.30
2023-03-19T02:37:00.844Z,17.40
2023-03-19T02:39:52.377Z,16.20
2023-03-19T02:42:23.469Z,17.00
2023-03-19T02:44:55.517Z,16.70
2023-03-19T02:47:29.569Z,16.30
2023-03-19T02:49:57.707Z,16.10
2023-03-19T02:52:27.055Z,15.60
2023-03-19T02:54:55.772Z,15.50
2023-03-19T02:57:30.242Z,13.70
2023-03-19T02:59:58.586Z,14.40
2023-03-19T03:02:27.544Z,13.40
2023-03-19T03:04:56.047Z,15.50
2023-03-19T03:07:27.325Z,14.50
2023-03-19T03:09:59.651Z,14.20
2023-03-19T03:12:27.974Z,14.30
2023-03-19T03:17:46.130Z,14.50
2023-03-19T03:20:17.796Z,13.70
2023-03-19T03:22:47.207Z,14.90
2023-03-19T03:25:19.657Z,14.80
2023-03-19T03:27:49.231Z,12.70
2023-03-19T03:30:17.621Z,12.50
2023-03-19T03:32:45.965Z,13.80
2023-03-19T03:35:22.070Z,14.40
2023-03-19T03:37:51.573Z,13.20
2023-03-19T03:40:20.701Z,14.20
2023-03-19T03:42:49.660Z,14.90
2023-03-19T03:45:19.205Z,15.00
2023-03-19T03:47:47.694Z,14.10
2023-03-19T03:50:17.131Z,13.30
2023-03-19T03:52:45.684Z,13.80
2023-03-19T03:55:14.278Z,14.10
2023-03-19T03:57:42.536Z,13.90
2023-03-19T04:00:12.796Z,14.10
2023-03-19T04:02:46.021Z,13.40
2023-03-19T04:05:28.803Z,14.50
2023-03-19T04:07:57.695Z,13.70
2023-03-19T04:10:27.177Z,12.80
2023-03-19T04:12:56.057Z,11.60
2023-03-19T04:15:24.442Z,11.00
2023-03-19T04:17:53.225Z,12.70
2023-03-19T04:20:23.879Z,11.80
2023-03-19T04:22:52.464Z,12.80
2023-03-19T04:25:20.866Z,11.80
2023-03-19T04:27:49.259Z,10.50
2023-03-19T04:30:17.566Z,11.30
2023-03-19T04:32:46.669Z,12.30
2023-03-19T04:35:15.753Z,11.40
2023-03-19T04:37:48.808Z,12.90
2023-03-19T04:40:21.142Z,13.00
2023-03-19T04:42:49.896Z,11.50
2023-03-19T04:45:32.649Z,12.10
2023-03-19T04:48:01.932Z,10.30
2023-03-19T04:50:37.132Z,9.30
2023-03-19T04:53:17.799Z,8.30
2023-03-19T04:55:47.352Z,8.30
2023-03-19T04:58:19.155Z,8.30
2023-03-19T05:00:52.703Z,7.70
2023-03-19T05:03:23.987Z,8.90
2023-03-19T05:05:55.013Z,8.50
2023-03-19T05:08:23.715Z,10.10
2023-03-19T05:10:52.210Z,10.90
2023-03-19T05:13:21.772Z,11.40
2023-03-19T05:15:54.346Z,12.40
2023-03-19T05:18:23.667Z,12.80
2023-03-19T05:20:55.791Z,11.40
2023-03-19T05:23:24.484Z,10.00
2023-03-19T05:26:08.716Z,7.70
2023-03-19T05:29:16.172Z,8.00
2023-03-19T05:31:57.711Z,6.50
2023-03-19T05:34:26.053Z,6.30
2023-03-19T05:37:01.916Z,6.90
2023-03-19T05:39:30.314Z,6.50
2023-03-19T05:42:02.181Z,7.10
2023-03-19T05:44:31.430Z,6.40
2023-03-19T05:47:27.589Z,5.60
2023-03-19T05:49:58.144Z,6.50
2023-03-19T05:52:26.982Z,6.80
